createdAt,value
2019-01-23T00:01:12.976Z,-3.88
2019-01-23T00:03:42.661Z,-3.94
2019-01-23T00:06:12.135Z,-3.85
2019-01-23T00:08:41.760Z,-4.01
2019-01-23T00:11:11.035Z,-3.99
2019-01-23T00:13:40.315Z,-4.09
2019-01-23T00:16:09.600Z,-3.99
2019-01-23T00:18:38.881Z,-4.02
2019-01-23T00:21:08.166Z,-4.15
2019-01-23T00:23:37.436Z,-4.12
2019-01-23T00:26:06.751Z,-4.29
2019-01-23T00:28:42.218Z,-4.19
2019-01-23T00:31:07.087Z,-4.18
2019-01-23T00:33:36.359Z,-4.19
2019-01-23T00:36:05.623Z,-4.13
2019-01-23T00:38:34.912Z,-4.25
2019-01-23T00:41:04.182Z,-4.11
2019-01-23T00:43:33.495Z,-4.12
2019-01-23T00:46:02.762Z,-3.83
2019-01-23T00:48:32.074Z,-4.06
2019-01-23T00:51:01.334Z,-4.10
2019-01-23T00:53:30.607Z,-4.20
2019-01-23T00:55:59.896Z,-4.13
2019-01-23T00:58:29.254Z,-4.27
2019-01-23T01:00:58.566Z,-4.10
2019-01-23T01:03:27.874Z,-4.07
2019-01-23T01:05:57.213Z,-4.17
2019-01-23T01:08:26.510Z,-4.14
2019-01-23T01:10:55.803Z,-4.27
2019-01-23T01:13:25.071Z,-4.30
2019-01-23T01:15:54.383Z,-4.12
2019-01-23T01:18:23.660Z,-4.25
2019-01-23T01:20:52.971Z,-4.17
2019-01-23T01:23:22.253Z,-4.34
2019-01-23T01:25:51.526Z,-4.10
2019-01-23T01:28:22.621Z,-4.09
2019-01-23T01:30:51.887Z,-4.09
2019-01-23T01:33:21.181Z,-4.10
2019-01-23T01:35:50.454Z,-4.18
2019-01-23T01:38:19.743Z,-4.30
2019-01-23T01:40:49.026Z,-4.30
2019-01-23T01:43:18.333Z,-4.13
2019-01-23T01:45:47.606Z,-4.26
2019-01-23T01:48:16.879Z,-4.27
2019-01-23T01:50:46.163Z,-4.10
2019-01-23T01:53:15.438Z,-4.19
2019-01-23T01:55:44.725Z,-4.28
2019-01-23T01:58:13.995Z,-4.12
2019-01-23T02:00:43.305Z,-3.96
2019-01-23T02:03:15.561Z,-4.05
2019-01-23T02:05:43.618Z,-3.97
2019-01-23T02:08:12.884Z,-4.43
2019-01-23T02:10:42.184Z,-4.30
2019-01-23T02:13:11.477Z,-4.39
2019-01-23T02:15:40.763Z,-4.48
2019-01-23T02:18:10.045Z,-4.30
2019-01-23T02:20:39.314Z,-4.30
2019-01-23T02:23:10.978Z,-4.30
2019-01-23T02:25:40.284Z,-4.47
2019-01-23T02:28:09.578Z,-4.46
2019-01-23T02:30:38.846Z,-4.49
2019-01-23T02:33:08.365Z,-4.58
2019-01-23T02:35:37.638Z,-4.36
2019-01-23T02:38:06.937Z,-4.53
2019-01-23T02:40:36.217Z,-4.50
2019-01-23T02:43:05.513Z,-4.61
2019-01-23T02:45:34.836Z,-4.65
2019-01-23T02:48:04.113Z,-4.50
2019-01-23T02:50:34.842Z,-4.58
2019-01-23T02:53:04.111Z,-4.64
2019-01-23T02:55:33.419Z,-4.63
2019-01-23T02:58:02.705Z,-4.86
2019-01-23T03:00:32.060Z,-4.53
2019-01-23T03:03:01.352Z,-4.67
2019-01-23T03:05:30.616Z,-4.53
2019-01-23T03:08:00.898Z,-4.68
2019-01-23T03:10:30.178Z,-4.58
2019-01-23T03:12:59.498Z,-4.55
2019-01-23T03:15:28.786Z,-4.47
2019-01-23T03:17:58.180Z,-4.40
2019-01-23T03:20:27.517Z,-4.61
2019-01-23T03:22:56.785Z,-4.39
2019-01-23T03:25:26.325Z,-4.66
2019-01-23T03:27:55.668Z,-4.74
2019-01-23T03:30:25.351Z,-4.76
2019-01-23T03:32:54.641Z,-4.64
2019-01-23T03:35:24.044Z,-4.74
2019-01-23T03:37:53.349Z,-4.74
2019-01-23T03:40:23.262Z,-4.82
2019-01-23T03:42:52.668Z,-4.61
2019-01-23T03:45:21.942Z,-4.73
2019-01-23T03:47:51.221Z,-4.84
2019-01-23T03:50:21.202Z,-4.66
2019-01-23T03:52:50.681Z,-4.51
2019-01-23T03:55:20.721Z,-4.44
2019-01-23T03:57:50.186Z,-4.52
2019-01-23T04:00:21.439Z,-4.68
2019-01-23T04:02:52.064Z,-4.46
2019-01-23T04:05:21.717Z,-4.70
2019-01-23T04:07:51.249Z,-4.72
2019-01-23T04:10:20.524Z,-4.57
2019-01-23T04:12:49.806Z,-4.48
2019-01-23T04:15:19.206Z,-4.49
2019-01-23T04:17:48.543Z,-4.51
2019-01-23T04:20:20.977Z,-4.71
2019-01-23T04:22:50.258Z,-4.57
2019-01-23T04:25:19.757Z,-4.66
2019-01-23T04:27:49.033Z,-4.77
2019-01-23T04:30:21.468Z,-4.38
2019-01-23T04:32:50.748Z,-4.54
2019-01-23T04:35:20.121Z,-4.55
2019-01-23T04:37:49.766Z,-4.48
2019-01-23T04:40:19.353Z,-4.53
2019-01-23T04:42:48.626Z,-4.69
2019-01-23T04:45:18.371Z,-4.59
2019-01-23T04:47:47.742Z,-4.70
2019-01-23T04:50:17.743Z,-4.63
2019-01-23T04:53:05.540Z,-4.66
2019-01-23T04:55:36.550Z,-4.60
2019-01-23T04:58:05.962Z,-4.76
2019-01-23T05:00:35.442Z,-4.57
2019-01-23T05:03:04.772Z,-4.55
2019-01-23T05:05:34.092Z,-4.72
2019-01-23T05:08:03.366Z,-4.58
2019-01-23T05:10:32.654Z,-4.68
2019-01-23T05:13:01.937Z,-4.70
2019-01-23T05:15:31.230Z,-4.75
2019-01-23T05:18:00.496Z,-4.71
2019-01-23T05:20:29.766Z,-4.61
2019-01-23T05:22:59.072Z,-4.71
2019-01-23T05:25:28.355Z,-4.84
2019-01-23T05:27:57.631Z,-4.79
2019-01-23T05:30:26.893Z,-4.66
2019-01-23T05:32:56.227Z,-4.64
2019-01-23T05:35:25.494Z,-4.69
2019-01-23T05:37:54.758Z,-4.59
2019-01-23T05:40:24.053Z,-4.61
2019-01-23T05:42:53.321Z,-4.67
2019-01-23T05:45:22.607Z,-4.57
2019-01-23T05:47:51.919Z,-4.64
2019-01-23T05:50:21.194Z,-4.71
2019-01-23T05:52:50.487Z,-4.86
2019-01-23T05:55:19.762Z,-4.69
2019-01-23T05:57:49.059Z,-4.63
2019-01-23T06:00:20.833Z,-4.49
2019-01-23T06:02:50.100Z,-4.53
2019-01-23T06:05:20.127Z,-4.44
2019-01-23T06:08:11.146Z,-4.48
2019-01-23T06:10:41.196Z,-4.60
2019-01-23T06:13:12.706Z,-4.68
2019-01-23T06:15:43.605Z,-4.82
2019-01-23T06:18:13.588Z,-4.76
2019-01-23T06:20:43.124Z,-4.76
2019-01-23T06:23:13.874Z,-4.59
2019-01-23T06:25:44.617Z,-4.51
2019-01-23T06:28:14.215Z,-4.83
2019-01-23T06:30:43.809Z,-4.97
2019-01-23T06:33:13.307Z,-4.81
2019-01-23T06:35:42.774Z,-4.80
2019-01-23T06:38:12.097Z,-4.89
2019-01-23T06:40:41.787Z,-4.89
2019-01-23T06:43:11.429Z,-4.81
2019-01-23T06:45:42.496Z,-4.66
2019-01-23T06:48:12.081Z,-4.78
2019-01-23T06:50:42.751Z,-4.68
2019-01-23T06:53:14.182Z,-4.66
2019-01-23T06:55:43.322Z,-4.73
2019-01-23T06:58:13.146Z,-4.64
2019-01-23T07:00:43.030Z,-4.65
2019-01-23T07:03:12.675Z,-4.62
2019-01-23T07:05:42.411Z,-4.61
2019-01-23T07:08:12.038Z,-4.63
2019-01-23T07:10:41.372Z,-4.60
2019-01-23T07:13:10.681Z,-4.41
2019-01-23T07:15:39.999Z,-4.67
2019-01-23T07:18:09.596Z,-4.52
2019-01-23T07:20:38.889Z,-4.69
2019-01-23T07:23:08.203Z,-4.81
2019-01-23T07:25:37.475Z,-4.69
2019-01-23T07:28:06.802Z,-4.63
2019-01-23T07:30:42.041Z,-4.66
2019-01-23T07:33:11.333Z,-4.59
2019-01-23T07:35:40.617Z,-4.50
2019-01-23T07:38:09.958Z,-4.60
2019-01-23T07:40:39.245Z,-4.51
2019-01-23T07:43:08.513Z,-4.37
2019-01-23T07:45:37.794Z,-4.39
2019-01-23T07:48:07.079Z,-4.14
2019-01-23T07:50:36.373Z,-4.34
2019-01-23T07:53:06.151Z,-4.34
2019-01-23T07:55:35.439Z,-4.65
2019-01-23T07:58:04.726Z,-4.50
2019-01-23T08:00:34.020Z,-4.51
2019-01-23T08:03:03.318Z,-4.51
2019-01-23T08:05:32.730Z,-4.58
2019-01-23T08:08:02.203Z,-4.47
2019-01-23T08:10:31.476Z,-4.63
2019-01-23T08:13:00.765Z,-4.40
2019-01-23T08:15:35.056Z,-4.57
2019-01-23T08:18:05.205Z,-4.43
2019-01-23T08:20:34.472Z,-4.61
2019-01-23T08:23:03.770Z,-4.50
2019-01-23T08:25:33.043Z,-4.69
2019-01-23T08:28:02.336Z,-4.54
2019-01-23T08:30:38.405Z,-4.39
2019-01-23T08:33:02.644Z,-4.37
2019-01-23T08:35:31.918Z,-4.41
2019-01-23T08:38:01.221Z,-4.52
2019-01-23T08:40:30.496Z,-4.45
2019-01-23T08:42:59.858Z,-4.35
2019-01-23T08:45:29.150Z,-4.64
2019-01-23T08:47:58.429Z,-4.59
2019-01-23T08:50:31.021Z,-4.69
2019-01-23T08:53:00.308Z,-4.49
2019-01-23T08:55:29.602Z,-4.55
2019-01-23T08:57:58.865Z,-4.55
2019-01-23T09:00:28.205Z,-4.35
2019-01-23T09:02:57.533Z,-4.43
2019-01-23T09:05:26.887Z,-4.41
2019-01-23T09:07:56.223Z,-4.55
2019-01-23T09:10:25.627Z,-4.51
2019-01-23T09:12:54.935Z,-4.73
2019-01-23T09:15:24.212Z,-4.91
2019-01-23T09:17:53.485Z,-4.96
2019-01-23T09:20:22.990Z,-4.82
2019-01-23T09:22:52.339Z,-4.96
2019-01-23T09:25:23.406Z,-4.94
2019-01-23T09:27:52.687Z,-5.01
2019-01-23T09:30:37.404Z,-4.83
2019-01-23T09:33:34.291Z,-5.06
2019-01-23T09:36:39.628Z,-4.85
2019-01-23T09:39:33.417Z,-4.72
2019-01-23T09:42:29.491Z,-4.61
2019-01-23T09:45:31.427Z,-4.72
2019-01-23T09:48:27.890Z,-4.76
2019-01-23T09:51:43.001Z,-4.71
2019-01-23T09:54:15.104Z,-4.84
2019-01-23T09:56:47.878Z,-4.94
2019-01-23T09:59:17.186Z,-4.85
2019-01-23T10:01:46.455Z,-4.89
2019-01-23T10:04:36.190Z,-4.75
2019-01-23T10:07:07.047Z,-4.55
2019-01-23T10:09:39.606Z,-4.55
2019-01-23T10:12:09.040Z,-4.52
2019-01-23T10:14:38.799Z,-4.45
2019-01-23T10:17:08.367Z,-4.24
2019-01-23T10:19:37.639Z,-4.63
2019-01-23T10:22:06.964Z,-4.35
2019-01-23T10:24:36.284Z,-4.30
2019-01-23T10:27:05.663Z,-4.30
2019-01-23T10:29:35.002Z,-4.22
2019-01-23T10:32:04.257Z,-4.02
2019-01-23T10:34:33.601Z,-4.34
2019-01-23T10:37:02.887Z,-4.43
2019-01-23T10:39:32.356Z,-4.23
2019-01-23T10:42:01.849Z,-4.35
2019-01-23T10:44:31.151Z,-4.22
2019-01-23T10:47:00.454Z,-4.11
2019-01-23T10:49:29.736Z,-4.28
2019-01-23T10:51:59.032Z,-3.97
2019-01-23T10:54:28.310Z,-4.06
2019-01-23T10:56:57.638Z,-4.08
2019-01-23T10:59:26.961Z,-4.37
2019-01-23T11:01:56.256Z,-4.25
2019-01-23T11:04:25.559Z,-4.14
2019-01-23T11:06:54.881Z,-4.21
2019-01-23T11:09:24.309Z,-4.05
2019-01-23T11:11:53.749Z,-3.98
2019-01-23T11:14:23.060Z,-3.95
2019-01-23T11:16:52.325Z,-4.12
2019-01-23T11:19:21.668Z,-4.02
2019-01-23T11:21:50.980Z,-4.01
2019-01-23T11:24:20.256Z,-4.03
2019-01-23T11:26:49.546Z,-4.05
2019-01-23T11:29:18.825Z,-3.78
2019-01-23T11:31:48.138Z,-3.69
2019-01-23T11:34:17.417Z,-3.87
2019-01-23T11:36:46.687Z,-3.61
2019-01-23T11:39:16.045Z,-3.77
2019-01-23T11:41:45.344Z,-3.70
2019-01-23T11:44:14.646Z,-3.48
2019-01-23T11:46:43.910Z,-3.81
2019-01-23T11:49:13.182Z,-3.79
2019-01-23T11:51:42.509Z,-3.87
2019-01-23T11:54:11.799Z,-3.80
2019-01-23T11:56:41.090Z,-3.81
2019-01-23T11:59:10.366Z,-3.69
2019-01-23T12:01:39.737Z,-3.89
2019-01-23T12:04:09.069Z,-3.83
2019-01-23T12:06:38.351Z,-3.91
2019-01-23T12:09:10.505Z,-4.00
2019-01-23T12:11:39.775Z,-3.89
2019-01-23T12:14:09.287Z,-3.87
2019-01-23T12:16:38.558Z,-3.90
2019-01-23T12:19:07.901Z,-3.68
2019-01-23T12:21:37.176Z,-3.90
2019-01-23T12:24:06.483Z,-4.01
2019-01-23T12:26:35.747Z,-3.91
2019-01-23T12:29:05.171Z,-3.86
2019-01-23T12:31:35.207Z,-3.63
2019-01-23T12:34:04.819Z,-3.46
2019-01-23T12:36:34.113Z,-3.47
2019-01-23T12:39:05.083Z,-3.31
2019-01-23T12:41:34.391Z,-3.53
2019-01-23T12:44:03.676Z,-3.76
2019-01-23T12:46:32.952Z,-3.76
2019-01-23T12:49:02.259Z,-3.76
2019-01-23T12:51:31.564Z,-3.64
2019-01-23T12:54:00.857Z,-3.34
2019-01-23T12:56:30.147Z,-3.62
2019-01-23T12:58:59.443Z,-3.62
2019-01-23T13:01:28.713Z,-3.87
2019-01-23T13:03:57.984Z,-3.72
2019-01-23T13:06:27.293Z,-3.69
2019-01-23T13:08:56.602Z,-3.60
2019-01-23T13:11:25.906Z,-3.62
2019-01-23T13:13:55.174Z,-3.61
2019-01-23T13:16:25.910Z,-3.60
2019-01-23T13:18:55.174Z,-3.69
2019-01-23T13:21:24.458Z,-3.70
2019-01-23T13:23:53.787Z,-3.64
2019-01-23T13:26:23.039Z,-3.66
2019-01-23T13:28:52.356Z,-3.89
2019-01-23T13:31:21.625Z,-3.70
2019-01-23T13:33:51.085Z,-3.41
2019-01-23T13:36:20.376Z,-3.43
2019-01-23T13:38:49.651Z,-3.56
2019-01-23T13:41:18.941Z,-3.71
2019-01-23T13:43:48.196Z,-3.68
2019-01-23T13:46:17.487Z,-3.57
2019-01-23T13:48:46.741Z,-3.69
2019-01-23T13:51:16.026Z,-3.63
2019-01-23T13:53:45.397Z,-3.68
2019-01-23T13:56:14.686Z,-3.42
2019-01-23T13:58:43.982Z,-3.75
2019-01-23T14:01:13.246Z,-3.84
2019-01-23T14:03:42.542Z,-3.82
2019-01-23T14:06:11.809Z,-3.84
2019-01-23T14:08:41.092Z,-3.77
2019-01-23T14:11:10.386Z,-3.87
2019-01-23T14:13:39.715Z,-3.90
2019-01-23T14:16:08.974Z,-3.75
2019-01-23T14:18:38.254Z,-3.55
2019-01-23T14:21:07.547Z,-3.55
2019-01-23T14:23:36.820Z,-3.56
2019-01-23T14:26:06.107Z,-3.34
2019-01-23T14:28:36.780Z,-3.68
2019-01-23T14:31:06.972Z,-3.58
2019-01-23T14:33:36.299Z,-3.71
2019-01-23T14:36:05.789Z,-3.77
2019-01-23T14:38:36.100Z,-3.90
2019-01-23T14:41:07.023Z,-3.70
2019-01-23T14:43:36.369Z,-3.74
2019-01-23T14:46:06.051Z,-3.97
2019-01-23T14:48:35.357Z,-3.73
2019-01-23T14:51:04.973Z,-3.77
2019-01-23T14:53:34.253Z,-4.03
2019-01-23T14:56:03.580Z,-3.86
2019-01-23T14:58:32.855Z,-3.92
2019-01-23T15:01:02.285Z,-3.78
2019-01-23T15:03:31.550Z,-3.67
2019-01-23T15:06:00.833Z,-3.47
2019-01-23T15:08:30.161Z,-3.52
2019-01-23T15:11:00.705Z,-3.33
2019-01-23T15:13:30.570Z,-3.65
2019-01-23T15:15:59.942Z,-3.57
2019-01-23T15:18:30.066Z,-3.65
2019-01-23T15:20:59.330Z,-3.62
2019-01-23T15:23:28.924Z,-3.61
2019-01-23T15:25:58.206Z,-3.46
2019-01-23T15:28:27.504Z,-3.48
2019-01-23T15:30:56.795Z,-3.51
2019-01-23T15:33:26.073Z,-3.74
2019-01-23T15:35:55.390Z,-3.77
2019-01-23T15:38:24.877Z,-3.89
2019-01-23T15:40:54.254Z,-3.79
2019-01-23T15:43:23.522Z,-4.09
2019-01-23T15:45:52.965Z,-4.06
2019-01-23T15:48:22.226Z,-3.99
2019-01-23T15:50:51.545Z,-4.24
2019-01-23T15:53:21.576Z,-4.17
2019-01-23T15:55:50.905Z,-4.29
2019-01-23T15:58:20.199Z,-4.17
2019-01-23T16:00:49.457Z,-4.09
2019-01-23T16:03:18.788Z,-4.17
2019-01-23T16:05:49.161Z,-4.12
2019-01-23T16:08:18.496Z,-4.01
2019-01-23T16:10:49.256Z,-4.10
2019-01-23T16:13:18.530Z,-3.81
2019-01-23T16:15:47.829Z,-3.86
2019-01-23T16:18:17.905Z,-3.90
2019-01-23T16:20:47.667Z,-3.89
2019-01-23T16:23:17.307Z,-3.80
2019-01-23T16:25:47.031Z,-3.74
2019-01-23T16:28:16.498Z,-3.90
2019-01-23T16:30:46.299Z,-3.81
2019-01-23T16:33:15.602Z,-3.99
2019-01-23T16:35:44.868Z,-3.95
2019-01-23T16:38:14.375Z,-3.64
2019-01-23T16:40:44.743Z,-3.68
2019-01-23T16:43:14.121Z,-3.59
2019-01-23T16:45:43.381Z,-3.61
2019-01-23T16:48:12.716Z,-3.85
2019-01-23T16:50:41.979Z,-3.94
2019-01-23T16:53:11.254Z,-4.05
2019-01-23T16:55:40.667Z,-3.97
2019-01-23T16:58:10.371Z,-4.09
2019-01-23T17:00:39.857Z,-4.02
2019-01-23T17:03:09.537Z,-3.96
2019-01-23T17:05:38.851Z,-3.97
2019-01-23T17:08:09.654Z,-4.03
2019-01-23T17:10:39.003Z,-4.04
2019-01-23T17:13:09.908Z,-3.97
2019-01-23T17:15:39.205Z,-3.71
2019-01-23T17:18:09.731Z,-3.72
2019-01-23T17:20:41.578Z,-3.62
2019-01-23T17:23:10.843Z,-3.55
2019-01-23T17:25:40.252Z,-3.63
2019-01-23T17:28:11.110Z,-3.61
2019-01-23T17:30:40.413Z,-3.53
2019-01-23T17:33:09.689Z,-3.77
2019-01-23T17:35:38.977Z,-3.76
2019-01-23T17:38:08.482Z,-3.89
2019-01-23T17:40:37.767Z,-3.89
2019-01-23T17:43:07.251Z,-3.96
2019-01-23T17:45:38.817Z,-3.91
2019-01-23T17:48:11.125Z,-3.94
2019-01-23T17:51:07.227Z,-3.88
2019-01-23T17:53:36.524Z,-3.64
2019-01-23T17:56:06.025Z,-3.64
2019-01-23T17:58:35.323Z,-3.90
2019-01-23T18:01:04.971Z,-3.99
2019-01-23T18:03:34.493Z,-3.92
2019-01-23T18:06:03.928Z,-3.93
2019-01-23T18:08:33.199Z,-3.97
2019-01-23T18:11:02.465Z,-3.73
2019-01-23T18:13:33.719Z,-3.87
2019-01-23T18:16:14.615Z,-3.78
2019-01-23T18:18:43.905Z,-3.82
2019-01-23T18:21:14.649Z,-3.79
2019-01-23T18:23:45.483Z,-3.78
2019-01-23T18:26:14.807Z,-3.78
2019-01-23T18:28:44.114Z,-3.81
2019-01-23T18:31:30.825Z,-3.94
2019-01-23T18:34:52.962Z,-3.81
2019-01-23T18:37:47.506Z,-3.72
2019-01-23T18:41:21.958Z,-3.63
2019-01-23T18:44:20.150Z,-3.45
2019-01-23T18:47:32.578Z,-3.65
2019-01-23T18:50:36.627Z,-3.78
2019-01-23T18:53:06.281Z,-3.76
2019-01-23T18:55:39.053Z,-3.77
2019-01-23T18:58:08.418Z,-3.78
2019-01-23T19:00:40.717Z,-3.86
2019-01-23T19:03:11.829Z,-3.79
2019-01-23T19:05:41.146Z,-3.68
2019-01-23T19:08:11.748Z,-3.80
2019-01-23T19:10:42.065Z,-3.83
2019-01-23T19:13:11.361Z,-3.86
2019-01-23T19:15:40.733Z,-3.79
2019-01-23T19:18:10.008Z,-3.65
2019-01-23T19:20:39.698Z,-3.68
2019-01-23T19:23:09.069Z,-3.68
2019-01-23T19:25:38.360Z,-3.68
2019-01-23T19:28:07.764Z,-3.76
2019-01-23T19:30:37.087Z,-3.76
2019-01-23T19:33:06.795Z,-3.70
2019-01-23T19:35:36.071Z,-3.81
2019-01-23T19:38:06.107Z,-3.82
2019-01-23T19:40:35.447Z,-3.73
2019-01-23T19:43:05.043Z,-3.89
2019-01-23T19:45:34.356Z,-3.84
2019-01-23T19:48:03.781Z,-3.91
2019-01-23T19:50:33.115Z,-3.75
2019-01-23T19:53:04.423Z,-3.81
2019-01-23T19:55:33.881Z,-3.87
2019-01-23T19:58:04.578Z,-3.85
2019-01-23T20:00:34.005Z,-4.04
2019-01-23T20:03:03.664Z,-3.86
2019-01-23T20:05:34.521Z,-3.65
2019-01-23T20:08:04.411Z,-3.71
2019-01-23T20:10:33.695Z,-3.77
2019-01-23T20:13:02.984Z,-3.80
2019-01-23T20:15:32.531Z,-3.79
2019-01-23T20:18:06.261Z,-3.80
2019-01-23T20:20:35.550Z,-3.86
2019-01-23T20:23:04.957Z,-3.71
2019-01-23T20:25:34.321Z,-3.83
2019-01-23T20:28:05.699Z,-3.93
2019-01-23T20:30:37.891Z,-3.84
2019-01-23T20:33:07.430Z,-3.92
2019-01-23T20:35:36.749Z,-3.93
2019-01-23T20:38:06.553Z,-3.89
2019-01-23T20:40:37.226Z,-3.92
2019-01-23T20:43:08.534Z,-3.66
2019-01-23T20:45:37.978Z,-3.71
2019-01-23T20:48:10.702Z,-3.43
2019-01-23T20:50:41.206Z,-3.60
2019-01-23T20:53:10.470Z,-3.73
2019-01-23T20:55:40.359Z,-3.74
2019-01-23T20:58:09.905Z,-3.82
2019-01-23T21:00:39.440Z,-3.77
2019-01-23T21:03:09.196Z,-3.73
2019-01-23T21:05:39.401Z,-3.63
2019-01-23T21:08:09.046Z,-3.68
2019-01-23T21:10:38.760Z,-3.74
2019-01-23T21:13:08.637Z,-3.73
2019-01-23T21:15:38.962Z,-3.67
2019-01-23T21:18:08.709Z,-3.80
2019-01-23T21:20:40.327Z,-3.73
2019-01-23T21:23:11.257Z,-3.74
2019-01-23T21:25:40.859Z,-3.67
2019-01-23T21:28:10.123Z,-3.75
2019-01-23T21:30:39.517Z,-3.80
2019-01-23T21:33:09.627Z,-3.83
2019-01-23T21:35:40.238Z,-3.72
2019-01-23T21:38:09.523Z,-3.79
2019-01-23T21:40:38.802Z,-3.80
2019-01-23T21:43:10.072Z,-3.91
2019-01-23T21:45:41.115Z,-3.96
2019-01-23T21:48:10.642Z,-3.97
2019-01-23T21:50:40.533Z,-3.98
2019-01-23T21:53:10.141Z,-3.83
2019-01-23T21:55:39.548Z,-3.76
2019-01-23T21:58:08.841Z,-3.44
2019-01-23T22:00:49.549Z,-3.65
2019-01-23T22:03:20.226Z,-3.83
2019-01-23T22:05:50.758Z,-3.95
2019-01-23T22:08:20.068Z,-3.94
2019-01-23T22:10:49.388Z,-3.96
2019-01-23T22:13:19.094Z,-3.83
2019-01-23T22:15:54.600Z,-3.91
2019-01-23T22:18:23.982Z,-3.63
2019-01-23T22:20:53.287Z,-3.88
2019-01-23T22:23:22.654Z,-3.89
2019-01-23T22:25:51.950Z,-3.91
2019-01-23T22:28:23.206Z,-3.98
2019-01-23T22:30:52.696Z,-3.88
2019-01-23T22:33:22.064Z,-3.94
2019-01-23T22:35:51.333Z,-3.78
2019-01-23T22:38:20.646Z,-3.82
2019-01-23T22:40:49.978Z,-3.85
2019-01-23T22:43:19.472Z,-3.89
2019-01-23T22:45:49.996Z,-3.79
2019-01-23T22:48:19.859Z,-3.91
2019-01-23T22:50:49.521Z,-3.85
2019-01-23T22:53:19.244Z,-3.93
2019-01-23T22:55:49.036Z,-3.81
2019-01-23T22:58:18.671Z,-3.88
2019-01-23T23:01:18.562Z,-3.78
2019-01-23T23:03:48.386Z,-3.84
2019-01-23T23:06:17.763Z,-3.91
2019-01-23T23:08:47.756Z,-3.88
2019-01-23T23:11:17.189Z,-3.90
2019-01-23T23:13:46.624Z,-3.74
2019-01-23T23:16:16.205Z,-3.81
2019-01-23T23:18:45.693Z,-3.82
2019-01-23T23:21:15.256Z,-3.64
2019-01-23T23:23:44.665Z,-3.70
2019-01-23T23:26:14.156Z,-3.70
2019-01-23T23:28:43.813Z,-3.65
2019-01-23T23:31:13.304Z,-3.90
2019-01-23T23:33:43.290Z,-3.84
2019-01-23T23:36:33.368Z,-3.99
2019-01-23T23:39:03.150Z,-3.86
2019-01-23T23:41:32.545Z,-3.92
2019-01-23T23:44:01.825Z,-3.82
2019-01-23T23:46:31.094Z,-3.89
2019-01-23T23:49:00.433Z,-3.93
2019-01-23T23:51:29.714Z,-3.91
2019-01-23T23:53:59.017Z,-3.93
2019-01-23T23:56:28.295Z,-3.79
2019-01-23T23:58:57.610Z,-3.76
